Time;durP1;ratioP1;P1;durP2;ratioP2;P2;SDS_P1;SDS_P2;PMS_P1;PMS_P2;Temp;Humidity;BMP_temperature;BMP_pressure;BME280_temperature;BME280_humidity;BME280_pressure;Samples;Min_cycle;Max_cycle;Signal;HPM_P1;HPM_P2
2023/03/20 00:01:18;;;;;;;52.03;20.98;;;;;;;;;;5131254;27;20031;-75
2023/03/20 00:03:44;;;;;;;53.42;21.58;;;;;;;;;;5114218;28;20372;-75
2023/03/20 00:06:23;;;;;;;57.70;22.70;;;;;;;;;;5115468;28;20118;-75
2023/03/20 00:08:50;;;;;;;53.35;21.50;;;;;;;;;;5114421;28;20042;-75
2023/03/20 00:11:29;;;;;;;53.47;21.42;;;;;;;;;;5114101;28;20027;-75
2023/03/20 00:14:02;;;;;;;54.03;20.95;;;;;;;;;;5114134;28;20020;-75
2023/03/20 00:16:34;;;;;;;53.88;21.50;;;;;;;;;;5131677;27;20030;-76
2023/03/20 00:19:00;;;;;;;65.22;22.85;;;;;;;;;;5131533;27;20050;-75
2023/03/20 00:21:26;;;;;;;57.22;22.38;;;;;;;;;;5080313;28;20527;-75
2023/03/20 00:23:53;;;;;;;63.13;23.92;;;;;;;;;;5147933;27;20031;-76
2023/03/20 00:26:19;;;;;;;68.90;24.05;;;;;;;;;;5113725;28;20077;-75
2023/03/20 00:28:47;;;;;;;58.97;23.65;;;;;;;;;;5113855;28;20023;-76
2023/03/20 00:31:27;;;;;;;63.38;24.27;;;;;;;;;;5114013;28;20042;-76
2023/03/20 00:33:54;;;;;;;52.10;21.70;;;;;;;;;;5080126;28;20291;-76
2023/03/20 00:36:20;;;;;;;57.38;21.55;;;;;;;;;;5113761;28;20463;-76
2023/03/20 00:38:45;;;;;;;60.85;23.80;;;;;;;;;;5115143;28;20023;-75
2023/03/20 00:41:19;;;;;;;52.10;22.27;;;;;;;;;;5114588;28;20487;-76
2023/03/20 00:43:45;;;;;;;58.17;22.60;;;;;;;;;;5095937;28;20027;-75
2023/03/20 00:46:12;;;;;;;60.40;24.77;;;;;;;;;;5113318;28;20372;-75
2023/03/20 00:48:39;;;;;;;65.50;24.60;;;;;;;;;;5113315;28;20067;-75
2023/03/20 00:51:04;;;;;;;63.17;25.83;;;;;;;;;;5113084;28;20081;-75
2023/03/20 00:53:30;;;;;;;58.45;23.40;;;;;;;;;;5113336;28;20372;-75
2023/03/20 00:55:55;;;;;;;64.18;25.40;;;;;;;;;;5113359;28;20019;-76
2023/03/20 00:58:21;;;;;;;72.00;24.85;;;;;;;;;;5079649;28;20028;-76
2023/03/20 01:00:46;;;;;;;65.65;24.55;;;;;;;;;;5113368;28;20027;-76
2023/03/20 01:03:21;;;;;;;65.45;24.85;;;;;;;;;;5113177;28;20177;-75
2023/03/20 01:05:47;;;;;;;64.38;25.55;;;;;;;;;;5113162;28;20363;-76
2023/03/20 01:08:23;;;;;;;67.80;24.58;;;;;;;;;;5079687;28;20020;-76
2023/03/20 01:10:50;;;;;;;66.05;24.40;;;;;;;;;;5113105;28;20027;-76
2023/03/20 01:13:47;;;;;;;62.63;24.20;;;;;;;;;;5130270;27;20034;-76
2023/03/20 01:16:21;;;;;;;68.15;24.45;;;;;;;;;;5098778;28;20035;-76
2023/03/20 01:18:47;;;;;;;67.78;25.00;;;;;;;;;;5130847;27;20055;-76
2023/03/20 01:21:13;;;;;;;66.47;24.75;;;;;;;;;;5112777;28;20413;-76
2023/03/20 01:23:38;;;;;;;66.28;25.38;;;;;;;;;;5112966;28;20043;-75
2023/03/20 01:26:10;;;;;;;69.20;26.15;;;;;;;;;;5113101;28;20034;-76
2023/03/20 01:28:36;;;;;;;63.28;25.38;;;;;;;;;;5113087;28;20039;-76
2023/03/20 01:31:01;;;;;;;65.70;24.77;;;;;;;;;;5112893;28;20028;-76
2023/03/20 01:33:28;;;;;;;65.93;24.75;;;;;;;;;;5112905;28;20035;-77
2023/03/20 01:35:53;;;;;;;67.25;23.88;;;;;;;;;;5095940;28;20089;-76
2023/03/20 01:38:25;;;;;;;62.15;24.13;;;;;;;;;;5112901;28;20023;-75
2023/03/20 01:41:06;;;;;;;64.13;25.30;;;;;;;;;;5134197;27;20457;-76
2023/03/20 01:43:32;;;;;;;60.42;25.05;;;;;;;;;;5134962;27;20027;-76
2023/03/20 01:46:08;;;;;;;67.28;25.20;;;;;;;;;;5080787;28;20080;-76
2023/03/20 01:48:49;;;;;;;70.97;26.05;;;;;;;;;;5099834;28;20035;-75
2023/03/20 01:51:17;;;;;;;;;;;;;;;;;;5118238;28;20055;-76
2023/03/20 01:53:50;;;;;;;66.40;24.95;;;;;;;;;;5115386;28;19975;-77
2023/03/20 01:56:16;;;;;;;65.90;25.80;;;;;;;;;;5134403;27;20027;-77
2023/03/20 01:58:43;;;;;;;81.97;29.90;;;;;;;;;;5099685;28;20030;-76
2023/03/20 02:01:10;;;;;;;85.10;31.30;;;;;;;;;;5133895;27;20027;-76
2023/03/20 02:03:37;;;;;;;89.40;32.35;;;;;;;;;;5116350;28;20039;-76
2023/03/20 02:06:02;;;;;;;82.00;31.83;;;;;;;;;;5099646;28;20023;-76
2023/03/20 02:08:31;;;;;;;87.15;32.58;;;;;;;;;;5099630;28;20027;-76
2023/03/20 02:10:58;;;;;;;87.47;32.00;;;;;;;;;;5099736;28;20047;-76
2023/03/20 02:13:26;;;;;;;94.50;34.13;;;;;;;;;;5133622;27;20114;-77
2023/03/20 02:15:56;;;;;;;93.45;33.97;;;;;;;;;;5100010;28;20028;-76
2023/03/20 02:18:22;;;;;;;105.18;35.28;;;;;;;;;;5116137;28;20054;-75
2023/03/20 02:20:56;;;;;;;92.82;33.83;;;;;;;;;;5099670;28;20043;-75
2023/03/20 02:23:47;;;;;;;91.40;35.58;;;;;;;;;;5117235;28;20036;-76
2023/03/20 02:26:34;;;;;;;;;;;;;;;;;;5116774;28;20038;-75
2023/03/20 02:29:21;;;;;;;106.82;35.05;;;;;;;;;;5116247;28;19965;-78
2023/03/20 02:32:04;;;;;;;97.63;35.25;;;;;;;;;;5117493;28;20028;-78
2023/03/20 02:34:38;;;;;;;95.10;33.38;;;;;;;;;;5134321;27;20020;-78
2023/03/20 02:37:28;;;;;;;83.00;33.63;;;;;;;;;;5117248;28;20037;-78
2023/03/20 02:40:07;;;;;;;89.45;33.05;;;;;;;;;;5134441;27;20044;-76
2023/03/20 02:42:44;;;;;;;97.30;35.13;;;;;;;;;;5099443;28;20036;-77
2023/03/20 02:45:13;;;;;;;92.80;34.85;;;;;;;;;;5115801;28;20102;-76
2023/03/20 02:48:05;;;;;;;105.25;37.45;;;;;;;;;;5116893;28;20038;-77
2023/03/20 02:50:39;;;;;;;109.13;38.03;;;;;;;;;;5115870;28;20031;-77
2023/03/20 02:53:08;;;;;;;100.43;37.72;;;;;;;;;;5115669;28;20418;-77
2023/03/20 02:55:54;;;;;;;101.50;37.33;;;;;;;;;;5116920;28;20023;-77
2023/03/20 02:58:28;;;;;;;101.88;37.13;;;;;;;;;;5116027;28;20391;-77
2023/03/20 03:01:00;;;;;;;104.53;40.22;;;;;;;;;;5133083;27;20062;-77
2023/03/20 03:03:34;;;;;;;104.10;38.20;;;;;;;;;;5098265;28;20397;-77
2023/03/20 03:06:18;;;;;;;116.95;41.85;;;;;;;;;;5115447;28;20088;-76
2023/03/20 03:08:46;;;;;;;102.05;36.95;;;;;;;;;;5116703;28;20422;-77
2023/03/20 03:11:12;;;;;;;100.55;36.83;;;;;;;;;;5132741;27;20066;-76
2023/03/20 03:13:41;;;;;;;97.95;36.03;;;;;;;;;;5115567;28;20055;-76
2023/03/20 03:16:16;;;;;;;100.47;35.25;;;;;;;;;;5115062;28;20438;-77
2023/03/20 03:18:42;;;;;;;112.60;37.83;;;;;;;;;;5115815;28;20024;-77
2023/03/20 03:21:07;;;;;;;101.03;32.90;;;;;;;;;;5098161;28;20368;-77
2023/03/20 03:23:42;;;;;;;83.68;29.95;;;;;;;;;;5094009;28;20445;-77
2023/03/20 03:26:10;;;;;;;87.22;29.95;;;;;;;;;;5132439;27;20368;-76
2023/03/20 03:28:39;;;;;;;71.43;27.48;;;;;;;;;;5132472;27;20016;-76
2023/03/20 03:31:07;;;;;;;80.30;28.40;;;;;;;;;;5132083;27;20027;-77
2023/03/20 03:33:33;;;;;;;78.05;28.33;;;;;;;;;;5132356;27;20164;-77
2023/03/20 03:36:29;;;;;;;85.63;29.15;;;;;;;;;;5132226;27;20027;-76
2023/03/20 03:39:09;;;;;;;80.53;27.70;;;;;;;;;;5104090;28;20043;-76
2023/03/20 03:41:41;;;;;;;;;;;;;;;;;;5115378;28;20028;-76
2023/03/20 03:44:35;;;;;;;83.53;27.48;;;;;;;;;;5115667;28;20248;-76
2023/03/20 03:47:30;;;;;;;80.70;28.80;;;;;;;;;;5114457;28;20020;-77
2023/03/20 03:50:03;;;;;;;91.25;30.35;;;;;;;;;;5093032;28;20043;-77
2023/03/20 03:52:28;;;;;;;97.22;31.98;;;;;;;;;;5098248;28;20070;-77
2023/03/20 03:55:04;;;;;;;90.80;31.00;;;;;;;;;;5097736;28;20061;-77
2023/03/20 03:57:36;;;;;;;80.00;29.38;;;;;;;;;;5114520;28;20031;-77
2023/03/20 04:00:04;;;;;;;88.60;31.38;;;;;;;;;;5097569;28;20114;-76
2023/03/20 04:02:30;;;;;;;81.90;31.50;;;;;;;;;;5097217;28;20039;-77
2023/03/20 04:04:55;;;;;;;92.82;32.75;;;;;;;;;;5097299;28;20394;-76
2023/03/20 04:07:24;;;;;;;97.50;34.67;;;;;;;;;;5097547;28;20052;-76
2023/03/20 04:09:50;;;;;;;97.93;33.13;;;;;;;;;;5097653;28;20441;-77
2023/03/20 04:12:39;;;;;;;101.30;35.05;;;;;;;;;;5115543;28;20027;-76
2023/03/20 04:15:05;;;;;;;94.13;33.38;;;;;;;;;;5101194;28;20465;-77
2023/03/20 04:17:30;;;;;;;101.90;34.42;;;;;;;;;;5115546;28;20039;-77
2023/03/20 04:19:56;;;;;;;102.57;34.83;;;;;;;;;;5114080;28;20032;-76
2023/03/20 04:22:21;;;;;;;103.47;34.65;;;;;;;;;;5080398;28;20035;-77
2023/03/20 04:24:47;;;;;;;94.28;33.45;;;;;;;;;;5114311;28;20035;-77
2023/03/20 04:27:12;;;;;;;100.03;34.67;;;;;;;;;;5113772;28;20055;-77
2023/03/20 04:29:38;;;;;;;98.28;34.88;;;;;;;;;;5113635;28;20063;-77
2023/03/20 04:32:03;;;;;;;108.10;35.65;;;;;;;;;;5096914;28;20166;-77
2023/03/20 04:34:29;;;;;;;103.07;37.47;;;;;;;;;;5115288;28;20031;-76
2023/03/20 04:36:55;;;;;;;127.18;39.92;;;;;;;;;;5096657;28;20460;-76
2023/03/20 04:39:21;;;;;;;117.80;41.67;;;;;;;;;;5113549;28;20071;-76
2023/03/20 04:41:46;;;;;;;132.70;43.80;;;;;;;;;;5113947;28;20038;-76
2023/03/20 04:44:12;;;;;;;133.55;45.38;;;;;;;;;;5113281;28;20376;-77
2023/03/20 04:46:37;;;;;;;130.98;45.60;;;;;;;;;;5096689;28;20073;-77
2023/03/20 04:49:03;;;;;;;135.35;47.13;;;;;;;;;;5096820;28;20016;-77
2023/03/20 04:51:28;;;;;;;151.73;49.42;;;;;;;;;;5113519;28;20058;-77
2023/03/20 04:53:54;;;;;;;138.38;48.33;;;;;;;;;;5113611;28;20034;-76
2023/03/20 04:56:19;;;;;;;137.98;48.50;;;;;;;;;;5114627;28;20023;-77
2023/03/20 04:58:45;;;;;;;141.65;49.20;;;;;;;;;;5096238;28;20059;-77
2023/03/20 05:01:10;;;;;;;139.93;50.20;;;;;;;;;;5113232;28;20122;-77
2023/03/20 05:03:35;;;;;;;137.95;48.20;;;;;;;;;;5096188;28;20031;-77
2023/03/20 05:06:01;;;;;;;160.50;49.15;;;;;;;;;;5114496;28;20031;-77
2023/03/20 05:08:26;;;;;;;148.30;49.65;;;;;;;;;;5096347;28;20023;-77
2023/03/20 05:10:52;;;;;;;148.15;49.60;;;;;;;;;;5114540;28;20055;-77
2023/03/20 05:13:17;;;;;;;151.32;53.00;;;;;;;;;;5095014;28;20122;-77
2023/03/20 05:15:43;;;;;;;152.93;52.90;;;;;;;;;;5114295;28;20433;-77
2023/03/20 05:18:08;;;;;;;162.88;52.28;;;;;;;;;;5114259;28;20019;-77
2023/03/20 05:20:35;;;;;;;148.80;53.83;;;;;;;;;;5113061;28;20026;-76
2023/03/20 05:23:01;;;;;;;157.15;55.13;;;;;;;;;;5112979;28;20111;-78
2023/03/20 05:25:26;;;;;;;156.43;52.38;;;;;;;;;;5130218;27;20108;-77
2023/03/20 05:27:52;;;;;;;150.15;51.38;;;;;;;;;;5094692;28;20051;-77
2023/03/20 05:30:18;;;;;;;143.82;51.10;;;;;;;;;;5113885;28;20020;-77
2023/03/20 05:32:44;;;;;;;183.00;54.15;;;;;;;;;;5096205;28;20475;-77
2023/03/20 05:35:09;;;;;;;165.50;53.05;;;;;;;;;;5129921;27;20059;-77
2023/03/20 05:37:35;;;;;;;159.18;52.53;;;;;;;;;;5112384;28;20028;-78
2023/03/20 05:40:02;;;;;;;157.23;52.45;;;;;;;;;;5112338;28;20032;-77
2023/03/20 05:42:27;;;;;;;148.20;51.58;;;;;;;;;;5091546;28;20509;-77
2023/03/20 05:44:52;;;;;;;146.73;50.50;;;;;;;;;;5104978;28;20135;-76
2023/03/20 05:47:18;;;;;;;149.35;51.97;;;;;;;;;;5111869;28;20039;-76
2023/03/20 05:49:43;;;;;;;150.43;51.17;;;;;;;;;;5112466;28;20366;-77
2023/03/20 05:52:09;;;;;;;138.48;48.45;;;;;;;;;;5084214;28;20119;-77
2023/03/20 05:54:35;;;;;;;147.60;50.50;;;;;;;;;;5067724;28;20380;-77
2023/03/20 05:57:01;;;;;;;150.05;50.90;;;;;;;;;;5105370;28;20099;-78
2023/03/20 05:59:27;;;;;;;128.45;48.33;;;;;;;;;;5083286;28;20040;-77
2023/03/20 06:01:52;;;;;;;146.57;50.47;;;;;;;;;;5101937;28;20050;-78
2023/03/20 06:04:23;;;;;;;149.02;51.78;;;;;;;;;;5099403;28;20055;-77
2023/03/20 06:06:49;;;;;;;141.35;52.60;;;;;;;;;;5102381;28;20614;-75
2023/03/20 06:09:14;;;;;;;140.05;50.83;;;;;;;;;;5106428;28;20481;-76
2023/03/20 06:11:40;;;;;;;149.70;50.40;;;;;;;;;;5099868;28;20042;-76
2023/03/20 06:14:05;;;;;;;141.82;49.80;;;;;;;;;;5095829;28;20084;-76
2023/03/20 06:16:31;;;;;;;140.13;51.63;;;;;;;;;;5096359;27;20519;-77
2023/03/20 06:18:57;;;;;;;139.13;52.40;;;;;;;;;;5107670;28;20379;-78
2023/03/20 06:21:22;;;;;;;135.32;49.22;;;;;;;;;;5111274;28;20023;-79
2023/03/20 06:23:48;;;;;;;131.20;49.58;;;;;;;;;;5099858;28;20032;-76
2023/03/20 06:26:13;;;;;;;122.70;46.60;;;;;;;;;;5106801;27;20036;-79
2023/03/20 06:28:39;;;;;;;111.97;42.47;;;;;;;;;;5105191;28;20024;-78
2023/03/20 06:31:04;;;;;;;115.20;45.47;;;;;;;;;;5109322;27;20027;-76
2023/03/20 06:33:30;;;;;;;94.40;40.30;;;;;;;;;;5112080;28;20483;-77
2023/03/20 06:35:55;;;;;;;91.68;40.35;;;;;;;;;;5112885;28;20031;-75
2023/03/20 06:38:22;;;;;;;92.35;38.60;;;;;;;;;;5107868;28;20039;-74
2023/03/20 06:40:47;;;;;;;83.22;38.03;;;;;;;;;;5106258;28;20534;-77
2023/03/20 06:43:13;;;;;;;93.13;38.95;;;;;;;;;;5134998;27;20111;-77
2023/03/20 06:45:38;;;;;;;185.32;38.72;;;;;;;;;;5107300;28;20031;-78
2023/03/20 06:48:07;;;;;;;71.88;32.67;;;;;;;;;;5106230;28;20080;-75
2023/03/20 06:50:33;;;;;;;66.95;30.55;;;;;;;;;;5106089;28;20178;-76
2023/03/20 06:53:02;;;;;;;66.93;30.95;;;;;;;;;;5108305;28;20624;-78
2023/03/20 06:55:28;;;;;;;54.75;25.27;;;;;;;;;;5106591;28;20034;-76
2023/03/20 06:57:53;;;;;;;53.83;24.17;;;;;;;;;;5089135;28;20027;-77
2023/03/20 07:00:21;;;;;;;44.30;23.45;;;;;;;;;;5110104;28;20034;-77
2023/03/20 07:02:47;;;;;;;38.38;21.10;;;;;;;;;;5108451;27;20031;-76
2023/03/20 07:05:13;;;;;;;43.30;21.77;;;;;;;;;;5110278;28;20019;-77
2023/03/20 07:07:39;;;;;;;48.85;21.33;;;;;;;;;;5096306;28;20032;-81
2023/03/20 07:10:05;;;;;;;37.88;20.40;;;;;;;;;;5108923;28;20019;-78
2023/03/20 07:12:30;;;;;;;39.88;20.10;;;;;;;;;;5108448;28;20019;-80
2023/03/20 07:14:59;;;;;;;42.85;21.05;;;;;;;;;;5114088;28;20023;-78
2023/03/20 07:17:25;;;;;;;36.45;18.08;;;;;;;;;;5107431;28;20456;-79
2023/03/20 07:19:51;;;;;;;36.75;18.92;;;;;;;;;;5109870;28;20069;-79
2023/03/20 07:22:24;;;;;;;37.65;19.55;;;;;;;;;;5108280;28;20090;-83
2023/03/20 07:24:50;;;;;;;32.65;19.08;;;;;;;;;;5105002;28;20123;-77
2023/03/20 07:27:16;;;;;;;43.80;21.83;;;;;;;;;;5111566;28;20128;-77
2023/03/20 07:29:42;;;;;;;38.05;20.08;;;;;;;;;;5112071;28;20032;-81
2023/03/20 07:32:08;;;;;;;42.25;19.58;;;;;;;;;;5113585;27;20031;-79
2023/03/20 07:34:34;;;;;;;31.33;19.08;;;;;;;;;;5107144;28;20027;-78
2023/03/20 07:37:00;;;;;;;32.70;18.77;;;;;;;;;;5102655;28;20609;-75
2023/03/20 07:39:26;;;;;;;40.50;21.25;;;;;;;;;;5110965;28;20043;-76
2023/03/20 07:41:51;;;;;;;40.40;20.65;;;;;;;;;;5112239;28;20028;-76
2023/03/20 07:44:18;;;;;;;34.05;20.25;;;;;;;;;;5105763;28;20035;-78
2023/03/20 07:46:48;;;;;;;40.15;21.50;;;;;;;;;;5100870;28;20031;-77
2023/03/20 07:49:17;;;;;;;34.35;20.42;;;;;;;;;;5107110;28;20057;-78
2023/03/20 07:51:43;;;;;;;34.58;20.40;;;;;;;;;;5110527;27;20290;-76
2023/03/20 07:54:08;;;;;;;37.70;20.70;;;;;;;;;;5102883;28;20027;-80
2023/03/20 07:56:35;;;;;;;37.55;20.90;;;;;;;;;;5111890;27;20036;-79
2023/03/20 07:59:00;;;;;;;38.92;22.95;;;;;;;;;;5104726;27;20401;-79
2023/03/20 08:01:36;;;;;;;42.60;23.25;;;;;;;;;;5106608;28;20070;-78
2023/03/20 08:04:02;;;;;;;34.53;21.23;;;;;;;;;;5121361;27;20046;-79
2023/03/20 08:06:27;;;;;;;41.63;22.63;;;;;;;;;;5100895;27;20111;-78
2023/03/20 08:08:53;;;;;;;43.75;22.88;;;;;;;;;;5122933;27;20031;-79
2023/03/20 08:11:18;;;;;;;40.22;23.13;;;;;;;;;;5112184;27;20119;-79
2023/03/20 08:13:44;;;;;;;40.08;23.23;;;;;;;;;;5109153;28;20035;-80
2023/03/20 08:16:10;;;;;;;39.55;23.13;;;;;;;;;;5109909;28;20019;-79
2023/03/20 08:18:35;;;;;;;38.25;22.38;;;;;;;;;;5092847;28;20122;-76
2023/03/20 08:21:06;;;;;;;40.20;24.35;;;;;;;;;;5110452;28;20449;-78
2023/03/20 08:23:32;;;;;;;42.65;25.83;;;;;;;;;;5115553;28;20050;-78
2023/03/20 08:25:57;;;;;;;44.88;26.70;;;;;;;;;;5110429;28;20116;-79
2023/03/20 08:28:23;;;;;;;46.25;25.60;;;;;;;;;;5108657;27;20071;-80
2023/03/20 08:30:48;;;;;;;53.45;25.80;;;;;;;;;;5102417;28;20028;-77
2023/03/20 08:33:15;;;;;;;42.53;24.45;;;;;;;;;;5140780;27;20036;-77
2023/03/20 08:35:40;;;;;;;39.17;23.15;;;;;;;;;;5109476;28;20384;-76
2023/03/20 08:38:06;;;;;;;48.75;24.85;;;;;;;;;;5108913;28;20038;-77
2023/03/20 08:40:31;;;;;;;49.35;23.88;;;;;;;;;;5109241;28;20035;-77
2023/03/20 08:42:57;;;;;;;40.72;22.92;;;;;;;;;;5111708;28;20023;-77
2023/03/20 08:45:24;;;;;;;48.03;23.20;;;;;;;;;;5093628;28;20034;-78
2023/03/20 08:47:51;;;;;;;39.85;24.00;;;;;;;;;;5110218;28;20023;-77
2023/03/20 08:50:18;;;;;;;56.28;28.27;;;;;;;;;;5109000;28;20469;-79
2023/03/20 08:52:47;;;;;;;52.65;25.92;;;;;;;;;;5107954;28;20020;-75
2023/03/20 08:55:14;;;;;;;60.60;29.70;;;;;;;;;;5106094;28;20035;-78
2023/03/20 08:57:40;;;;;;;56.40;30.58;;;;;;;;;;5090171;28;20032;-75
2023/03/20 09:00:10;;;;;;;67.25;32.30;;;;;;;;;;5086169;28;20545;-77
2023/03/20 09:02:36;;;;;;;62.88;32.65;;;;;;;;;;5111513;27;20091;-76
2023/03/20 09:05:02;;;;;;;68.95;31.10;;;;;;;;;;5101527;28;20461;-74
2023/03/20 09:07:27;;;;;;;65.85;31.90;;;;;;;;;;5099404;28;20059;-75
2023/03/20 09:09:52;;;;;;;60.95;31.60;;;;;;;;;;5108594;28;20122;-75
2023/03/20 09:12:20;;;;;;;62.17;31.67;;;;;;;;;;5108851;28;20111;-76
2023/03/20 09:14:49;;;;;;;58.67;31.77;;;;;;;;;;5104577;28;20042;-78
2023/03/20 09:17:15;;;;;;;70.57;33.60;;;;;;;;;;5101890;28;20050;-74
2023/03/20 09:19:43;;;;;;;64.05;33.25;;;;;;;;;;5108180;28;20369;-76
2023/03/20 09:22:13;;;;;;;60.47;30.75;;;;;;;;;;5106708;28;20027;-75
2023/03/20 09:24:38;;;;;;;62.92;32.85;;;;;;;;;;5108252;28;20027;-74
2023/03/20 09:27:04;;;;;;;68.20;32.55;;;;;;;;;;5107164;28;20042;-77
2023/03/20 09:29:30;;;;;;;66.10;33.40;;;;;;;;;;5109826;28;20031;-78
2023/03/20 09:31:55;;;;;;;58.92;31.45;;;;;;;;;;5104248;28;20039;-75
2023/03/20 09:34:21;;;;;;;59.17;31.55;;;;;;;;;;5108708;28;20039;-76
2023/03/20 09:36:46;;;;;;;57.50;29.88;;;;;;;;;;5082356;28;20040;-75
2023/03/20 09:39:12;;;;;;;62.88;27.02;;;;;;;;;;5110395;28;20054;-76
2023/03/20 09:41:37;;;;;;;55.35;25.10;;;;;;;;;;5107862;28;20028;-73
2023/03/20 09:44:36;;;;;;;52.90;24.75;;;;;;;;;;5108321;28;20071;-77
2023/03/20 09:47:24;;;;;;;95.15;39.20;;;;;;;;;;5039877;28;20178;-76
2023/03/20 09:50:21;;;;;;;72.13;34.83;;;;;;;;;;5090439;28;20031;-76
2023/03/20 09:53:05;;;;;;;95.30;39.60;;;;;;;;;;5091563;28;20506;-76
2023/03/20 09:55:39;;;;;;;118.47;55.63;;;;;;;;;;5072365;28;20475;-76
2023/03/20 09:58:26;;;;;;;136.77;60.40;;;;;;;;;;5102218;28;20104;-77
2023/03/20 10:00:51;;;;;;;136.38;62.70;;;;;;;;;;5110248;28;20420;-79
2023/03/20 10:03:23;;;;;;;138.15;62.03;;;;;;;;;;5109361;28;20118;-80
2023/03/20 10:05:51;;;;;;;121.28;54.28;;;;;;;;;;5112365;28;20106;-79
2023/03/20 10:08:18;;;;;;;129.90;54.20;;;;;;;;;;5117013;28;20127;-78
2023/03/20 10:11:15;;;;;;;113.50;48.53;;;;;;;;;;5110626;28;20032;-77
2023/03/20 10:13:55;;;;;;;111.40;46.03;;;;;;;;;;5098970;28;20024;-78
2023/03/20 10:16:27;;;;;;;102.88;46.67;;;;;;;;;;5102871;28;20054;-79
2023/03/20 10:19:15;;;;;;;109.75;48.90;;;;;;;;;;5110625;28;20811;-79
2023/03/20 10:22:02;;;;;;;100.90;44.63;;;;;;;;;;5085031;28;20063;-83
2023/03/20 10:24:36;;;;;;;88.45;40.60;;;;;;;;;;5096792;28;20035;-78
2023/03/20 10:27:06;;;;;;;88.78;40.55;;;;;;;;;;5095280;28;20024;-78
2023/03/20 10:29:45;;;;;;;96.47;43.15;;;;;;;;;;5095661;28;20048;-78
2023/03/20 10:32:23;;;;;;;81.82;36.85;;;;;;;;;;5079383;28;20032;-77
2023/03/20 10:34:56;;;;;;;87.95;38.95;;;;;;;;;;5120139;27;20537;-78
2023/03/20 10:37:28;;;;;;;80.15;38.53;;;;;;;;;;5109596;28;20067;-82
2023/03/20 10:40:12;;;;;;;79.38;36.72;;;;;;;;;;5111864;28;20430;-78
2023/03/20 10:42:40;;;;;;;89.43;39.97;;;;;;;;;;5110544;28;20027;-78
2023/03/20 10:45:33;;;;;;;85.60;38.65;;;;;;;;;;5096522;28;20031;-75
2023/03/20 10:48:00;;;;;;;87.72;38.13;;;;;;;;;;5088534;28;20030;-75
2023/03/20 10:50:39;;;;;;;81.35;36.38;;;;;;;;;;5103899;27;20041;-78
2023/03/20 10:53:05;;;;;;;86.15;36.25;;;;;;;;;;5115187;27;20436;-77
2023/03/20 10:55:36;;;;;;;79.70;36.97;;;;;;;;;;5108064;27;20036;-78
2023/03/20 10:58:20;;;;;;;81.70;36.55;;;;;;;;;;5105788;28;20035;-77
2023/03/20 11:00:46;;;;;;;74.75;35.03;;;;;;;;;;5108515;28;20384;-76
2023/03/20 11:03:26;;;;;;;81.53;36.13;;;;;;;;;;5110623;28;20119;-77
2023/03/20 11:06:27;;;;;;;68.43;33.30;;;;;;;;;;5097266;28;20029;-77
2023/03/20 11:08:53;;;;;;;71.55;31.77;;;;;;;;;;5048484;28;20054;-77
2023/03/20 11:11:26;;;;;;;76.53;34.40;;;;;;;;;;5104268;28;20040;-79
2023/03/20 11:13:52;;;;;;;67.68;33.30;;;;;;;;;;5103068;28;20112;-76
2023/03/20 11:16:25;;;;;;;79.70;35.00;;;;;;;;;;5089892;28;20952;-77
2023/03/20 11:18:54;;;;;;;72.70;34.95;;;;;;;;;;5111449;28;20032;-78
2023/03/20 11:21:35;;;;;;;73.00;34.58;;;;;;;;;;5115453;27;20448;-79
2023/03/20 11:24:26;;;;;;;79.18;33.65;;;;;;;;;;5091779;28;20063;-78
2023/03/20 11:26:53;;;;;;;75.40;32.55;;;;;;;;;;5110220;28;20028;-77
2023/03/20 11:29:24;;;;;;;67.05;32.75;;;;;;;;;;5139414;27;20127;-76
2023/03/20 11:31:50;;;;;;;68.95;33.10;;;;;;;;;;5108879;27;20045;-77
2023/03/20 11:34:16;;;;;;;77.65;32.78;;;;;;;;;;5112664;27;20353;-77
2023/03/20 11:36:54;;;;;;;77.60;34.58;;;;;;;;;;5105637;27;20043;-77
2023/03/20 11:39:40;;;;;;;77.82;33.20;;;;;;;;;;5108710;27;20031;-78
2023/03/20 11:42:21;;;;;;;82.15;32.53;;;;;;;;;;5114390;27;20039;-78
2023/03/20 11:44:55;;;;;;;65.90;30.17;;;;;;;;;;5106412;28;20143;-79
2023/03/20 11:47:21;;;;;;;71.40;30.42;;;;;;;;;;5076907;28;20123;-78
2023/03/20 11:49:58;;;;;;;63.95;30.30;;;;;;;;;;5110649;28;20034;-78
2023/03/20 11:52:27;;;;;;;64.97;29.58;;;;;;;;;;5092501;28;20035;-75
2023/03/20 11:54:55;;;;;;;63.38;29.27;;;;;;;;;;5109573;28;20026;-74
2023/03/20 11:57:37;;;;;;;77.05;31.35;;;;;;;;;;5101763;28;20027;-73
2023/03/20 12:00:22;;;;;;;67.25;29.88;;;;;;;;;;5110007;28;20026;-76
2023/03/20 12:02:48;;;;;;;67.07;28.17;;;;;;;;;;5109074;28;20032;-75
2023/03/20 12:05:18;;;;;;;62.28;28.10;;;;;;;;;;5108755;28;20038;-75
2023/03/20 12:07:44;;;;;;;62.58;29.08;;;;;;;;;;5113437;28;20097;-75
2023/03/20 12:10:10;;;;;;;61.88;28.65;;;;;;;;;;5108214;28;20028;-75
2023/03/20 12:12:53;;;;;;;62.88;28.00;;;;;;;;;;5091006;28;20024;-75
2023/03/20 12:15:25;;;;;;;69.13;30.10;;;;;;;;;;5106402;27;20134;-76
2023/03/20 12:18:14;;;;;;;68.65;27.42;;;;;;;;;;5110518;28;20027;-75
2023/03/20 12:20:54;;;;;;;71.87;29.83;;;;;;;;;;5111319;28;20027;-76
2023/03/20 12:23:40;;;;;;;65.20;28.23;;;;;;;;;;5110800;28;20524;-74
2023/03/20 12:26:12;;;;;;;57.78;27.00;;;;;;;;;;5111600;28;20472;-77
2023/03/20 12:28:45;;;;;;;67.00;28.85;;;;;;;;;;5110610;28;20020;-75
2023/03/20 12:31:25;;;;;;;62.75;28.00;;;;;;;;;;5109153;28;20038;-74
2023/03/20 12:34:08;;;;;;;75.30;28.07;;;;;;;;;;5108287;28;20028;-77
2023/03/20 12:36:36;;;;;;;67.68;29.48;;;;;;;;;;5109341;28;20350;-75
2023/03/20 12:39:03;;;;;;;70.32;30.63;;;;;;;;;;5107500;28;20020;-75
2023/03/20 12:41:35;;;;;;;68.45;29.95;;;;;;;;;;5092850;28;20028;-75
2023/03/20 12:44:29;;;;;;;78.55;29.98;;;;;;;;;;5108631;28;20148;-75
2023/03/20 12:47:40;;;;;;;66.25;30.55;;;;;;;;;;5085564;28;20172;-78
2023/03/20 12:50:08;;;;;;;64.18;28.15;;;;;;;;;;5110664;28;20031;-75
2023/03/20 12:52:42;;;;;;;70.82;29.45;;;;;;;;;;5109213;28;20028;-74
2023/03/20 12:55:28;;;;;;;75.45;30.95;;;;;;;;;;5111308;28;20027;-75
2023/03/20 12:58:02;;;;;;;71.28;29.63;;;;;;;;;;5090880;28;20407;-75
2023/03/20 13:00:55;;;;;;;67.85;30.55;;;;;;;;;;5111013;28;20349;-76
2023/03/20 13:03:46;;;;;;;76.15;31.77;;;;;;;;;;5110850;28;20100;-76
2023/03/20 13:06:20;;;;;;;85.95;33.03;;;;;;;;;;5110713;28;20492;-75
2023/03/20 13:08:54;;;;;;;75.22;31.05;;;;;;;;;;5114115;28;20139;-76
2023/03/20 13:11:30;;;;;;;76.50;32.00;;;;;;;;;;5113753;28;20031;-74
2023/03/20 13:14:05;;;;;;;84.75;32.53;;;;;;;;;;5118598;27;20035;-75
2023/03/20 13:16:55;;;;;;;80.93;30.60;;;;;;;;;;5109882;28;20421;-75
2023/03/20 13:19:47;;;;;;;74.53;29.73;;;;;;;;;;5109254;28;20023;-74
2023/03/20 13:22:26;;;;;;;70.93;29.27;;;;;;;;;;5112934;28;20084;-74
2023/03/20 13:25:02;;;;;;;66.90;28.95;;;;;;;;;;5070411;28;20046;-74
2023/03/20 13:27:52;;;;;;;71.93;30.55;;;;;;;;;;5095931;28;20111;-76
2023/03/20 13:30:33;;;;;;;75.05;29.65;;;;;;;;;;5096143;28;20020;-77
2023/03/20 13:33:20;;;;;;;72.32;29.42;;;;;;;;;;5097845;28;20027;-76
2023/03/20 13:35:48;;;;;;;64.32;28.00;;;;;;;;;;5116896;28;20038;-77
2023/03/20 13:38:17;;;;;;;66.38;27.02;;;;;;;;;;5117479;28;20436;-76
2023/03/20 13:40:43;;;;;;;64.85;27.40;;;;;;;;;;5117048;28;20469;-77
2023/03/20 13:43:21;;;;;;;62.72;23.75;;;;;;;;;;5116995;28;20032;-77
2023/03/20 13:45:46;;;;;;;49.97;21.63;;;;;;;;;;5118506;28;20035;-76
2023/03/20 13:48:32;;;;;;;49.13;21.65;;;;;;;;;;5113697;28;20441;-77
2023/03/20 13:51:25;;;;;;;57.08;21.98;;;;;;;;;;5114709;28;20023;-76
2023/03/20 13:54:09;;;;;;;46.10;20.25;;;;;;;;;;5118183;28;20469;-76
2023/03/20 13:56:44;;;;;;;51.05;19.63;;;;;;;;;;5116923;28;20366;-77
2023/03/20 13:59:37;;;;;;;49.70;18.67;;;;;;;;;;5116880;28;20034;-74
2023/03/20 14:02:20;;;;;;;55.22;20.63;;;;;;;;;;5117536;28;20027;-77
2023/03/20 14:04:48;;;;;;;50.95;18.52;;;;;;;;;;5116495;28;20117;-74
2023/03/20 14:07:30;;;;;;;46.67;19.38;;;;;;;;;;5116832;28;20091;-74
2023/03/20 14:09:56;;;;;;;44.50;18.50;;;;;;;;;;5116541;28;20035;-74
2023/03/20 14:12:25;;;;;;;43.92;18.90;;;;;;;;;;5082743;28;20028;-74
2023/03/20 14:14:58;;;;;;;49.95;18.10;;;;;;;;;;5099482;28;20076;-74
2023/03/20 14:17:27;;;;;;;53.03;18.73;;;;;;;;;;5099692;28;20027;-74
2023/03/20 14:19:53;;;;;;;46.08;19.52;;;;;;;;;;5116671;28;20032;-74
2023/03/20 14:22:21;;;;;;;47.47;19.45;;;;;;;;;;5116284;28;20080;-75
2023/03/20 14:24:58;;;;;;;44.33;18.20;;;;;;;;;;5099053;28;20032;-75
2023/03/20 14:27:28;;;;;;;45.78;18.63;;;;;;;;;;5100252;28;20046;-77
2023/03/20 14:29:53;;;;;;;;;;;;;;;;;;5100380;28;20019;-77
2023/03/20 14:32:19;;;;;;;44.90;17.85;;;;;;;;;;5117896;28;19996;-76
2023/03/20 14:35:06;;;;;;;42.42;17.42;;;;;;;;;;5117778;28;20496;-77
2023/03/20 14:37:36;;;;;;;45.75;17.85;;;;;;;;;;5116105;28;20131;-77
2023/03/20 14:40:23;;;;;;;49.35;19.13;;;;;;;;;;5099392;28;20066;-76